createdAt,value
2018-12-06T00:00:08.363Z,4.45
2018-12-06T00:02:37.405Z,4.43
2018-12-06T00:05:06.426Z,4.34
2018-12-06T00:07:35.443Z,4.41
2018-12-06T00:10:04.542Z,4.38
2018-12-06T00:12:33.581Z,4.46
2018-12-06T00:15:25.871Z,4.53
2018-12-06T00:17:54.937Z,4.48
2018-12-06T00:20:23.982Z,4.50
2018-12-06T00:22:53.021Z,4.39
2018-12-06T00:25:22.037Z,4.43
2018-12-06T00:27:51.095Z,4.46
2018-12-06T00:30:32.803Z,4.36
2018-12-06T00:33:02.810Z,4.42
2018-12-06T00:35:31.965Z,4.43
2018-12-06T00:38:01.137Z,4.44
2018-12-06T00:40:30.144Z,4.43
2018-12-06T00:42:59.203Z,4.40
2018-12-06T00:45:28.350Z,4.42
2018-12-06T00:47:57.338Z,4.37
2018-12-06T00:50:26.390Z,4.39
2018-12-06T00:52:55.464Z,4.31
2018-12-06T00:55:24.490Z,4.30
2018-12-06T00:57:53.498Z,4.33
2018-12-06T01:00:22.558Z,4.43
2018-12-06T01:02:51.591Z,4.38
2018-12-06T01:05:20.632Z,4.43
2018-12-06T01:07:49.704Z,4.37
2018-12-06T01:10:19.063Z,4.33
2018-12-06T01:12:49.659Z,4.38
2018-12-06T01:15:18.656Z,4.33
2018-12-06T01:17:47.700Z,4.43
2018-12-06T01:20:18.246Z,4.49
2018-12-06T01:22:47.262Z,4.47
2018-12-06T01:25:16.307Z,4.49
2018-12-06T01:27:45.305Z,4.43
2018-12-06T01:30:14.960Z,4.48
2018-12-06T01:32:44.006Z,4.48
2018-12-06T01:35:13.699Z,4.54
2018-12-06T01:37:42.752Z,4.52
2018-12-06T01:40:11.790Z,4.49
2018-12-06T01:42:40.891Z,4.49
2018-12-06T01:45:09.905Z,4.50
2018-12-06T01:47:39.056Z,4.53
2018-12-06T01:50:08.338Z,4.67
2018-12-06T01:52:37.386Z,4.58
2018-12-06T01:55:06.415Z,4.53
2018-12-06T01:57:35.435Z,4.51
2018-12-06T02:00:04.983Z,4.50
2018-12-06T02:02:34.394Z,4.54
2018-12-06T02:05:03.773Z,4.49
2018-12-06T02:07:32.859Z,4.55
2018-12-06T02:10:01.921Z,4.48
2018-12-06T02:12:30.928Z,4.38
2018-12-06T02:15:00.129Z,4.50
2018-12-06T02:17:29.162Z,4.48
2018-12-06T02:19:58.219Z,4.50
2018-12-06T02:22:27.266Z,4.56
2018-12-06T02:24:56.295Z,4.53
2018-12-06T02:27:25.323Z,4.64
2018-12-06T02:29:54.340Z,4.60
2018-12-06T02:32:24.064Z,4.58
2018-12-06T02:34:53.534Z,4.59
2018-12-06T02:37:22.557Z,4.54
2018-12-06T02:39:51.597Z,4.48
2018-12-06T02:42:20.648Z,4.47
2018-12-06T02:44:49.802Z,4.43
2018-12-06T02:47:18.970Z,4.45
2018-12-06T02:49:48.100Z,4.46
2018-12-06T02:52:17.199Z,4.43
2018-12-06T02:54:49.610Z,4.48
2018-12-06T02:57:18.684Z,4.58
2018-12-06T02:59:47.691Z,4.46
2018-12-06T03:02:16.726Z,4.58
2018-12-06T03:04:52.548Z,4.63
2018-12-06T03:07:21.954Z,4.66
2018-12-06T03:09:51.003Z,4.62
2018-12-06T03:12:20.053Z,4.54
2018-12-06T03:14:55.649Z,4.56
2018-12-06T03:17:24.649Z,4.54
2018-12-06T03:19:53.745Z,4.47
2018-12-06T03:22:22.803Z,4.53
2018-12-06T03:24:56.009Z,4.55
2018-12-06T03:27:25.051Z,4.61
2018-12-06T03:29:54.075Z,4.54
2018-12-06T03:32:23.153Z,4.59
2018-12-06T03:34:52.174Z,4.63
2018-12-06T03:37:31.210Z,4.56
2018-12-06T03:40:00.272Z,4.57
2018-12-06T03:42:29.268Z,4.58
2018-12-06T03:44:58.343Z,4.62
2018-12-06T03:47:27.370Z,4.48
2018-12-06T03:49:56.477Z,4.57
2018-12-06T03:52:26.761Z,4.50
2018-12-06T03:54:55.808Z,4.60
2018-12-06T03:57:24.827Z,4.51
2018-12-06T03:59:53.868Z,4.48
2018-12-06T04:02:23.001Z,4.50
2018-12-06T04:04:52.115Z,4.43
2018-12-06T04:07:21.145Z,4.47
2018-12-06T04:09:50.327Z,4.40
2018-12-06T04:12:23.433Z,4.34
2018-12-06T04:14:52.493Z,4.35
2018-12-06T04:17:21.525Z,4.38
2018-12-06T04:19:50.568Z,4.30
2018-12-06T04:22:19.655Z,4.30
2018-12-06T04:24:49.038Z,4.30
2018-12-06T04:27:18.053Z,4.32
2018-12-06T04:29:47.194Z,4.33
2018-12-06T04:32:17.540Z,4.28
2018-12-06T04:34:46.876Z,4.32
2018-12-06T04:37:16.026Z,4.43
2018-12-06T04:39:45.090Z,4.46
2018-12-06T04:42:14.221Z,4.45
2018-12-06T04:44:44.019Z,4.33
2018-12-06T04:47:19.039Z,4.29
2018-12-06T04:49:48.677Z,4.37
2018-12-06T04:52:17.710Z,4.34
2018-12-06T04:54:46.772Z,4.33
2018-12-06T04:57:15.819Z,4.39
2018-12-06T04:59:45.452Z,4.38
2018-12-06T05:02:14.576Z,4.32
2018-12-06T05:04:43.643Z,4.40
2018-12-06T05:07:13.372Z,4.49
2018-12-06T05:09:49.339Z,4.52
2018-12-06T05:12:18.972Z,4.48
2018-12-06T05:14:48.197Z,4.48
2018-12-06T05:17:17.230Z,4.56
2018-12-06T05:19:46.298Z,4.52
2018-12-06T05:22:15.379Z,4.60
2018-12-06T05:24:44.396Z,4.56
2018-12-06T05:27:13.448Z,4.53
2018-12-06T05:29:43.921Z,4.56
2018-12-06T05:32:13.053Z,4.48
2018-12-06T05:34:42.218Z,4.55
2018-12-06T05:37:11.259Z,4.51
2018-12-06T05:39:40.341Z,4.51
2018-12-06T05:42:09.385Z,4.48
2018-12-06T05:44:38.461Z,4.53
2018-12-06T05:47:07.528Z,4.62
2018-12-06T05:49:40.545Z,4.79
2018-12-06T05:52:09.633Z,4.78
2018-12-06T05:54:38.708Z,4.85
2018-12-06T05:57:07.768Z,4.96
2018-12-06T05:59:36.833Z,5.09
2018-12-06T06:02:05.859Z,5.07
2018-12-06T06:04:34.923Z,5.08
2018-12-06T06:07:04.052Z,4.99
2018-12-06T06:09:33.116Z,5.14
2018-12-06T06:12:02.262Z,5.21
2018-12-06T06:14:31.319Z,5.20
2018-12-06T06:17:00.551Z,5.21
2018-12-06T06:19:29.655Z,5.16
2018-12-06T06:21:58.732Z,5.19
2018-12-06T06:24:28.813Z,5.20
2018-12-06T06:26:58.036Z,5.13
2018-12-06T06:29:28.353Z,5.21
2018-12-06T06:31:57.356Z,5.25
2018-12-06T06:34:26.381Z,5.11
2018-12-06T06:36:58.640Z,5.24
2018-12-06T06:39:27.727Z,5.24
2018-12-06T06:41:57.324Z,5.22
2018-12-06T06:44:27.061Z,5.26
2018-12-06T06:46:56.249Z,5.41
2018-12-06T06:49:25.345Z,5.33
2018-12-06T06:51:56.025Z,5.44
2018-12-06T06:54:25.087Z,5.30
2018-12-06T06:56:54.129Z,5.38
2018-12-06T06:59:26.274Z,5.40
2018-12-06T07:01:54.341Z,5.44
2018-12-06T07:04:23.433Z,5.41
2018-12-06T07:06:53.837Z,5.30
2018-12-06T07:09:29.457Z,5.27
2018-12-06T07:11:58.914Z,5.45
2018-12-06T07:14:27.973Z,5.26
2018-12-06T07:16:56.992Z,5.41
2018-12-06T07:19:31.889Z,5.32
2018-12-06T07:22:04.311Z,5.39
2018-12-06T07:24:33.952Z,5.28
2018-12-06T07:27:04.117Z,5.36
2018-12-06T07:29:36.519Z,5.39
2018-12-06T07:32:05.561Z,5.37
2018-12-06T07:34:35.343Z,5.46
2018-12-06T07:37:04.343Z,5.43
2018-12-06T07:39:33.505Z,5.44
2018-12-06T07:42:02.589Z,5.59
2018-12-06T07:44:31.641Z,5.56
2018-12-06T07:47:00.714Z,5.59
2018-12-06T07:49:29.805Z,5.51
2018-12-06T07:51:59.108Z,5.50
2018-12-06T07:54:35.557Z,5.49
2018-12-06T07:57:07.157Z,5.52
2018-12-06T07:59:36.208Z,5.56
2018-12-06T08:02:05.239Z,5.53
2018-12-06T08:04:41.113Z,5.49
2018-12-06T08:07:10.215Z,5.48
2018-12-06T08:09:39.302Z,5.47
2018-12-06T08:12:08.548Z,5.54
2018-12-06T08:14:37.590Z,5.48
2018-12-06T08:17:06.837Z,5.48
2018-12-06T08:19:35.875Z,5.46
2018-12-06T08:22:05.001Z,5.43
2018-12-06T08:24:34.041Z,5.46
2018-12-06T08:27:07.233Z,5.46
2018-12-06T08:29:36.271Z,5.56
2018-12-06T08:32:05.414Z,5.62
2018-12-06T08:34:34.469Z,5.62
2018-12-06T08:37:04.363Z,5.64
2018-12-06T08:39:33.453Z,5.72
2018-12-06T08:42:02.588Z,5.80
2018-12-06T08:44:31.668Z,6.02
2018-12-06T08:47:00.730Z,6.07
2018-12-06T08:49:31.569Z,6.23
2018-12-06T08:52:00.642Z,6.23
2018-12-06T08:54:29.713Z,6.18
2018-12-06T08:56:58.778Z,6.21
2018-12-06T08:59:27.832Z,6.11
2018-12-06T09:01:56.951Z,6.14
2018-12-06T09:04:25.998Z,6.25
2018-12-06T09:06:55.100Z,6.39
2018-12-06T09:09:24.558Z,6.28
2018-12-06T09:11:54.562Z,6.38
2018-12-06T09:14:23.645Z,6.44
2018-12-06T09:16:58.067Z,6.52
2018-12-06T09:19:29.487Z,6.51
2018-12-06T09:21:58.567Z,6.57
2018-12-06T09:24:35.104Z,6.61
2018-12-06T09:27:04.689Z,6.58
2018-12-06T09:29:33.990Z,6.53
2018-12-06T09:32:03.090Z,6.56
2018-12-06T09:34:38.313Z,6.51
2018-12-06T09:37:07.386Z,6.58
2018-12-06T09:39:36.524Z,6.55
2018-12-06T09:42:05.587Z,6.61
2018-12-06T09:44:34.718Z,6.75
2018-12-06T09:47:03.784Z,6.64
2018-12-06T09:49:32.913Z,6.69
2018-12-06T09:52:01.994Z,6.82
2018-12-06T09:54:34.480Z,6.84
2018-12-06T09:57:03.586Z,6.96
2018-12-06T09:59:33.092Z,7.01
2018-12-06T10:02:02.206Z,7.03
2018-12-06T10:04:36.385Z,7.06
2018-12-06T10:07:05.449Z,7.04
2018-12-06T10:09:34.635Z,7.14
2018-12-06T10:12:03.691Z,7.22
2018-12-06T10:14:35.800Z,7.21
2018-12-06T10:17:04.837Z,7.35
2018-12-06T10:19:33.873Z,7.35
2018-12-06T10:22:02.923Z,7.42
2018-12-06T10:24:31.997Z,7.50
2018-12-06T10:27:01.449Z,7.52
2018-12-06T10:29:34.211Z,7.57
2018-12-06T10:32:03.300Z,7.58
2018-12-06T10:34:33.264Z,7.60
2018-12-06T10:37:09.662Z,7.60
2018-12-06T10:39:38.738Z,7.54
2018-12-06T10:42:07.778Z,7.63
2018-12-06T10:44:37.453Z,7.61
2018-12-06T10:47:06.817Z,7.53
2018-12-06T10:49:36.693Z,7.45
2018-12-06T10:52:05.855Z,7.47
2018-12-06T10:54:35.029Z,7.36
2018-12-06T10:57:04.130Z,7.44
2018-12-06T10:59:33.239Z,7.50
2018-12-06T11:02:03.844Z,7.58
2018-12-06T11:04:34.902Z,7.72
2018-12-06T11:07:05.448Z,7.78
2018-12-06T11:09:36.041Z,7.79
2018-12-06T11:12:05.103Z,7.90
2018-12-06T11:14:34.180Z,8.07
2018-12-06T11:17:03.251Z,8.10
2018-12-06T11:19:32.345Z,8.00
2018-12-06T11:22:03.023Z,8.09
2018-12-06T11:24:32.067Z,7.96
2018-12-06T11:27:01.179Z,8.04
2018-12-06T11:29:30.233Z,8.16
2018-12-06T11:32:01.979Z,8.22
2018-12-06T11:34:35.358Z,8.24
2018-12-06T11:37:04.422Z,8.22
2018-12-06T11:39:33.433Z,8.19
2018-12-06T11:42:02.534Z,8.26
2018-12-06T11:44:36.609Z,8.35
2018-12-06T11:47:05.644Z,8.38
2018-12-06T11:49:34.862Z,8.44
2018-12-06T11:52:03.952Z,8.50
2018-12-06T11:54:35.524Z,8.63
2018-12-06T11:57:04.597Z,8.61
2018-12-06T11:59:33.677Z,8.66
2018-12-06T12:02:09.735Z,8.63
2018-12-06T12:04:36.852Z,8.72
2018-12-06T12:07:05.955Z,8.63
2018-12-06T12:09:35.057Z,8.58
2018-12-06T12:12:04.181Z,8.50
2018-12-06T12:14:33.263Z,8.51
2018-12-06T12:17:02.413Z,8.64
2018-12-06T12:19:31.536Z,8.66
2018-12-06T12:22:04.639Z,8.73
2018-12-06T12:24:40.979Z,8.74
2018-12-06T12:27:10.085Z,8.76
2018-12-06T12:29:39.637Z,8.70
2018-12-06T12:32:08.737Z,8.78
2018-12-06T12:34:38.210Z,8.77
2018-12-06T12:37:07.300Z,8.86
2018-12-06T12:39:36.385Z,8.82
2018-12-06T12:42:05.861Z,8.85
2018-12-06T12:44:34.961Z,8.88
2018-12-06T12:47:19.834Z,8.87
2018-12-06T12:49:48.943Z,8.86
2018-12-06T12:52:17.998Z,8.84
2018-12-06T12:54:47.371Z,8.83
2018-12-06T12:57:21.507Z,8.91
2018-12-06T12:59:52.275Z,8.94
2018-12-06T13:02:21.583Z,8.93
2018-12-06T13:04:55.948Z,9.00
2018-12-06T13:07:25.207Z,9.00
2018-12-06T13:09:54.825Z,9.07
2018-12-06T13:12:24.186Z,9.10
2018-12-06T13:14:53.426Z,9.14
2018-12-06T13:17:22.854Z,9.15
2018-12-06T13:20:03.128Z,9.10
2018-12-06T13:22:33.656Z,9.12
2018-12-06T13:25:05.415Z,9.11
2018-12-06T13:27:34.601Z,9.17
2018-12-06T13:30:06.219Z,9.17
2018-12-06T13:35:29.564Z,9.19
2018-12-06T13:37:58.678Z,9.26
2018-12-06T13:40:28.039Z,9.28
2018-12-06T13:43:01.690Z,9.21
2018-12-06T13:45:32.478Z,9.20
2018-12-06T13:48:02.256Z,9.26
2018-12-06T13:50:36.650Z,9.35
2018-12-06T13:53:05.796Z,9.36
2018-12-06T13:55:34.861Z,9.44
2018-12-06T13:58:05.109Z,9.45
2018-12-06T14:00:34.417Z,9.43
2018-12-06T14:03:12.565Z,9.53
2018-12-06T14:05:41.623Z,9.58
2018-12-06T14:08:10.697Z,9.57
2018-12-06T14:10:39.753Z,9.65
2018-12-06T14:13:08.840Z,9.66
2018-12-06T14:15:37.929Z,9.71
2018-12-06T14:18:07.160Z,9.72
2018-12-06T14:20:36.322Z,9.83
2018-12-06T14:23:05.433Z,9.81
2018-12-06T14:25:42.321Z,9.78
2018-12-06T14:28:11.395Z,9.86
2018-12-06T14:30:40.505Z,9.88
2018-12-06T14:33:09.748Z,9.89
2018-12-06T14:35:38.787Z,9.91
2018-12-06T14:38:18.037Z,9.91
2018-12-06T14:40:54.002Z,9.90
2018-12-06T14:43:24.179Z,9.92
2018-12-06T14:45:53.487Z,9.96
2018-12-06T14:48:22.831Z,9.89
2018-12-06T14:50:51.955Z,9.93
2018-12-06T14:53:21.051Z,9.94
2018-12-06T14:55:51.000Z,9.94
2018-12-06T14:58:20.065Z,9.90
2018-12-06T15:00:49.146Z,9.98
2018-12-06T15:03:18.241Z,10.02
2018-12-06T15:05:47.339Z,10.02
2018-12-06T15:08:16.443Z,10.09
2018-12-06T15:10:45.506Z,10.11
2018-12-06T15:13:14.577Z,10.12
2018-12-06T15:15:43.688Z,10.11
2018-12-06T15:18:12.776Z,10.10
2018-12-06T15:20:52.330Z,10.09
2018-12-06T15:23:21.362Z,10.17
2018-12-06T15:25:50.532Z,10.14
2018-12-06T15:28:19.621Z,10.12
2018-12-06T15:30:48.608Z,10.15
2018-12-06T15:33:36.457Z,10.17
2018-12-06T15:36:05.573Z,10.21
2018-12-06T15:38:34.660Z,10.25
2018-12-06T15:41:03.774Z,10.25
2018-12-06T15:43:33.387Z,10.19
2018-12-06T15:46:02.474Z,10.20
2018-12-06T15:48:31.627Z,10.29
2018-12-06T15:51:15.453Z,10.28
2018-12-06T15:53:44.646Z,10.30
2018-12-06T15:56:13.743Z,10.27
2018-12-06T15:58:42.818Z,10.29
2018-12-06T16:01:18.712Z,10.36
2018-12-06T16:04:05.899Z,10.37
2018-12-06T16:06:39.418Z,10.35
2018-12-06T16:09:08.482Z,10.40
2018-12-06T16:11:37.647Z,10.39
2018-12-06T16:14:06.778Z,10.43
2018-12-06T16:16:35.887Z,10.44
2018-12-06T16:19:28.594Z,10.48
2018-12-06T16:21:57.842Z,10.48
2018-12-06T16:24:26.934Z,10.59
2018-12-06T16:26:56.015Z,10.58
2018-12-06T16:29:25.058Z,10.63
2018-12-06T16:31:54.192Z,10.58
2018-12-06T16:34:23.260Z,10.65
2018-12-06T16:36:52.392Z,10.63
2018-12-06T16:39:21.687Z,10.63
2018-12-06T16:42:03.596Z,10.70
2018-12-06T16:44:33.037Z,10.73
2018-12-06T16:47:02.088Z,10.78
2018-12-06T16:49:32.113Z,10.76
2018-12-06T16:52:05.468Z,10.76
2018-12-06T16:54:34.574Z,10.77
2018-12-06T16:57:03.673Z,10.82
2018-12-06T16:59:32.815Z,10.82
2018-12-06T17:02:01.930Z,10.80
2018-12-06T17:04:30.968Z,10.86
2018-12-06T17:07:00.046Z,10.92
2018-12-06T17:09:38.328Z,10.92
2018-12-06T17:12:08.737Z,10.93
2018-12-06T17:14:38.044Z,10.96
2018-12-06T17:17:07.136Z,10.95
2018-12-06T17:19:36.346Z,10.92
2018-12-06T17:22:05.440Z,11.00
2018-12-06T17:24:34.499Z,10.97
2018-12-06T17:27:03.563Z,11.00
2018-12-06T17:29:33.798Z,10.97
2018-12-06T17:32:07.909Z,11.01
2018-12-06T17:34:36.998Z,10.99
2018-12-06T17:37:06.066Z,10.95
2018-12-06T17:39:36.119Z,10.96
2018-12-06T17:42:05.236Z,11.00
2018-12-06T17:44:41.325Z,11.05
2018-12-06T17:47:10.446Z,11.05
2018-12-06T17:49:39.563Z,11.02
2018-12-06T17:52:08.703Z,11.03
2018-12-06T17:54:42.077Z,11.07
2018-12-06T17:57:11.253Z,11.07
2018-12-06T17:59:40.323Z,11.01
2018-12-06T18:02:09.412Z,11.07
2018-12-06T18:04:42.320Z,11.02
2018-12-06T18:07:11.371Z,11.08
2018-12-06T18:09:40.541Z,11.11
2018-12-06T18:12:09.672Z,11.12
2018-12-06T18:14:38.853Z,11.08
2018-12-06T18:17:07.980Z,11.07
2018-12-06T18:19:37.124Z,11.10
2018-12-06T18:22:06.248Z,11.12
2018-12-06T18:24:35.346Z,11.08
2018-12-06T18:27:04.527Z,11.10
2018-12-06T18:29:33.654Z,11.14
2018-12-06T18:32:02.732Z,11.17
2018-12-06T18:34:31.820Z,11.14
2018-12-06T18:37:00.946Z,11.17
2018-12-06T18:39:30.024Z,11.20
2018-12-06T18:42:06.820Z,11.15
2018-12-06T18:44:35.966Z,11.17
2018-12-06T18:47:07.598Z,11.15
2018-12-06T18:49:37.902Z,11.12
2018-12-06T18:52:07.864Z,11.07
2018-12-06T18:54:39.565Z,11.06
2018-12-06T18:57:08.689Z,11.08
2018-12-06T18:59:37.827Z,11.11
2018-12-06T19:02:06.879Z,11.09
2018-12-06T19:04:36.059Z,11.10
2018-12-06T19:07:05.224Z,11.08
2018-12-06T19:09:34.371Z,11.12
2018-12-06T19:12:03.534Z,11.06
2018-12-06T19:14:32.649Z,11.09
2018-12-06T19:17:01.871Z,11.16
2018-12-06T19:19:31.662Z,11.13
2018-12-06T19:22:00.910Z,11.13
2018-12-06T19:24:30.033Z,11.08
2018-12-06T19:26:59.153Z,11.04
2018-12-06T19:29:32.313Z,11.08
2018-12-06T19:32:01.719Z,11.13
2018-12-06T19:34:33.307Z,11.12
2018-12-06T19:37:03.701Z,11.13
2018-12-06T19:39:32.958Z,11.18
2018-12-06T19:42:02.894Z,11.15
2018-12-06T19:44:32.783Z,11.11
2018-12-06T19:47:01.952Z,11.07
2018-12-06T20:21:38.026Z,10.86
2018-12-06T20:24:07.517Z,10.96
2018-12-06T20:33:51.855Z,10.79
2018-12-06T20:39:14.715Z,10.98
2018-12-06T20:44:38.613Z,10.94
2018-12-06T20:47:09.940Z,10.87
2018-12-06T20:49:43.610Z,10.76
2018-12-06T20:53:44.057Z,10.87
2018-12-06T21:15:24.727Z,10.86
2018-12-06T21:17:53.902Z,10.83
2018-12-06T21:33:28.561Z,10.89
2018-12-06T21:45:05.003Z,10.86
2018-12-06T21:55:29.415Z,10.86
2018-12-06T21:57:58.976Z,10.94
2018-12-06T22:00:40.051Z,10.94
2018-12-06T22:06:02.803Z,10.98
2018-12-06T22:08:37.641Z,11.01
2018-12-06T22:11:06.730Z,11.03
2018-12-06T22:13:35.739Z,11.04
2018-12-06T22:16:04.771Z,11.01
2018-12-06T22:18:33.980Z,11.02
2018-12-06T22:21:02.995Z,11.04
2018-12-06T22:23:32.077Z,11.06
2018-12-06T22:26:01.111Z,11.05
2018-12-06T22:28:34.038Z,11.06
2018-12-06T22:31:01.174Z,11.07
2018-12-06T22:33:30.199Z,11.06
2018-12-06T22:35:59.248Z,11.08
2018-12-06T22:38:34.052Z,11.10
2018-12-06T22:40:59.371Z,11.11
2018-12-06T22:43:28.448Z,11.11
2018-12-06T22:46:04.369Z,11.06
2018-12-06T22:51:26.602Z,11.16
2018-12-06T22:53:55.592Z,11.15
2018-12-06T22:56:24.706Z,11.17
2018-12-06T22:58:57.552Z,11.16
2018-12-06T23:01:32.001Z,11.22
2018-12-06T23:04:01.065Z,11.21
2018-12-06T23:06:30.093Z,11.23
2018-12-06T23:08:59.101Z,11.25
2018-12-06T23:11:28.158Z,11.28
2018-12-06T23:13:58.247Z,11.20
2018-12-06T23:16:27.390Z,11.22
2018-12-06T23:18:56.431Z,11.27
2018-12-06T23:21:26.095Z,11.26
2018-12-06T23:23:56.304Z,11.22
2018-12-06T23:26:31.620Z,11.16
2018-12-06T23:29:00.664Z,11.28
2018-12-06T23:31:29.680Z,11.28
2018-12-06T23:33:58.692Z,11.32
2018-12-06T23:39:21.058Z,11.32
2018-12-06T23:41:50.145Z,11.32
2018-12-06T23:44:19.813Z,11.34
2018-12-06T23:47:09.689Z,11.32
2018-12-06T23:52:33.694Z,11.38
2018-12-06T23:55:05.545Z,11.38
2018-12-06T23:57:40.090Z,11.36
